Time;durP1;ratioP1;P1;durP2;ratioP2;P2;SDS_P1;SDS_P2;PMS_P1;PMS_P2;Temp;Humidity;BMP_temperature;BMP_pressure;BME280_temperature;BME280_humidity;BME280_pressure;Samples;Min_cycle;Max_cycle;Signal;HPM_P1;HPM_P2
2022/10/08 00:01:23;;;;;;;15.00;3.87;;;;;;;;;;5076264;28;20032;-77
2022/10/08 00:03:53;;;;;;;11.63;4.70;;;;;;;;;;5079081;28;20052;-77
2022/10/08 00:06:19;;;;;;;16.87;5.13;;;;;;;;;;5073342;28;20452;-76
2022/10/08 00:09:12;;;;;;;10.43;4.23;;;;;;;;;;5064387;28;20032;-77
2022/10/08 00:11:39;;;;;;;15.50;4.15;;;;;;;;;;5066809;28;20142;-78
2022/10/08 00:14:05;;;;;;;21.47;4.70;;;;;;;;;;5074253;28;20348;-77
2022/10/08 00:16:36;;;;;;;15.40;5.23;;;;;;;;;;5058015;28;20070;-78
2022/10/08 00:19:13;;;;;;;13.73;4.23;;;;;;;;;;5099238;28;20020;-76
2022/10/08 00:21:42;;;;;;;20.33;5.10;;;;;;;;;;5080462;28;20039;-77
2022/10/08 00:24:13;;;;;;;14.30;4.57;;;;;;;;;;5081141;28;20023;-77
2022/10/08 00:26:39;;;;;;;14.40;4.07;;;;;;;;;;5089917;28;20083;-77
2022/10/08 00:29:06;;;;;;;14.83;4.67;;;;;;;;;;5087265;28;20437;-76
2022/10/08 00:31:34;;;;;;;14.20;4.20;;;;;;;;;;5080124;28;20063;-76
2022/10/08 00:34:02;;;;;;;14.57;4.10;;;;;;;;;;5078983;28;20024;-75
2022/10/08 00:36:30;;;;;;;13.90;4.27;;;;;;;;;;5083496;28;20043;-77
2022/10/08 00:39:16;;;;;;;11.77;3.50;;;;;;;;;;5065685;28;20039;-77
2022/10/08 00:41:44;;;;;;;13.37;4.63;;;;;;;;;;5097418;28;20107;-78
2022/10/08 00:44:31;;;;;;;22.10;5.53;;;;;;;;;;5079805;28;20074;-77
2022/10/08 00:46:57;;;;;;;16.10;4.80;;;;;;;;;;5079623;28;20115;-77
2022/10/08 00:49:26;;;;;;;15.33;4.63;;;;;;;;;;5079965;28;20429;-76
2022/10/08 00:51:54;;;;;;;16.07;4.43;;;;;;;;;;5079570;28;20333;-76
2022/10/08 00:54:20;;;;;;;15.43;4.73;;;;;;;;;;5080080;28;20024;-77
2022/10/08 00:56:55;;;;;;;19.47;4.83;;;;;;;;;;5065404;28;20028;-76
2022/10/08 00:59:22;;;;;;;17.83;5.27;;;;;;;;;;5090584;28;20398;-77
2022/10/08 01:01:48;;;;;;;16.87;4.70;;;;;;;;;;5097214;28;20105;-77
2022/10/08 01:04:14;;;;;;;22.63;4.93;;;;;;;;;;5078901;28;20028;-77
2022/10/08 01:06:42;;;;;;;11.83;4.43;;;;;;;;;;5083633;28;20189;-76
2022/10/08 01:09:11;;;;;;;19.10;4.73;;;;;;;;;;5082781;28;20028;-77
2022/10/08 01:11:47;;;;;;;12.70;4.43;;;;;;;;;;5079713;28;20077;-77
2022/10/08 01:14:19;;;;;;;18.43;5.17;;;;;;;;;;5093450;28;20027;-77
2022/10/08 01:16:45;;;;;;;14.40;4.85;;;;;;;;;;5059702;28;20093;-77
2022/10/08 01:19:30;;;;;;;18.87;4.73;;;;;;;;;;5094139;28;20029;-76
2022/10/08 01:22:05;;;;;;;22.60;5.00;;;;;;;;;;5104576;28;20363;-77
2022/10/08 01:27:31;;;;;;;22.77;4.83;;;;;;;;;;5086123;28;20062;-77
2022/10/08 01:30:00;;;;;;;13.50;4.37;;;;;;;;;;5088310;28;20024;-77
2022/10/08 01:32:30;;;;;;;13.40;5.00;;;;;;;;;;5111883;28;20035;-78
2022/10/08 01:35:01;;;;;;;20.53;6.27;;;;;;;;;;5078979;28;20500;-77
2022/10/08 01:37:33;;;;;;;18.73;5.23;;;;;;;;;;5112994;22;20036;-78
2022/10/08 01:40:01;;;;;;;19.13;4.57;;;;;;;;;;5058711;28;20418;-76
2022/10/08 01:42:31;;;;;;;18.53;5.40;;;;;;;;;;5067476;28;20024;-77
2022/10/08 01:45:03;;;;;;;16.80;5.17;;;;;;;;;;5070199;28;20035;-76
2022/10/08 01:47:29;;;;;;;18.83;5.60;;;;;;;;;;5076045;28;20025;-77
2022/10/08 01:49:55;;;;;;;27.53;4.93;;;;;;;;;;5076085;28;20028;-76
2022/10/08 01:52:26;;;;;;;23.30;7.40;;;;;;;;;;5072365;28;20017;-76
2022/10/08 01:54:55;;;;;;;17.23;5.17;;;;;;;;;;5058242;28;20052;-77
2022/10/08 01:57:22;;;;;;;14.90;4.57;;;;;;;;;;5058665;28;20020;-77
2022/10/08 01:59:55;;;;;;;19.30;5.43;;;;;;;;;;5075843;28;20025;-76
2022/10/08 02:02:23;;;;;;;18.70;4.60;;;;;;;;;;5058400;28;20020;-76
2022/10/08 02:04:52;;;;;;;17.10;5.67;;;;;;;;;;5053906;28;20140;-75
2022/10/08 02:07:20;;;;;;;28.20;4.87;;;;;;;;;;5047549;28;20029;-76
2022/10/08 02:09:50;;;;;;;18.63;5.47;;;;;;;;;;5060746;28;20044;-77
2022/10/08 02:12:16;;;;;;;19.20;5.00;;;;;;;;;;5080965;28;20024;-77
2022/10/08 02:14:56;;;;;;;18.10;4.53;;;;;;;;;;5075863;28;20024;-76
2022/10/08 02:17:28;;;;;;;20.17;4.67;;;;;;;;;;5046747;28;20028;-77
2022/10/08 02:20:00;;;;;;;16.88;4.45;;;;;;;;;;5050775;28;20083;-75
2022/10/08 02:22:33;;;;;;;16.27;4.77;;;;;;;;;;5065664;28;20052;-77
2022/10/08 02:25:19;;;;;;;15.67;4.87;;;;;;;;;;5058319;28;20024;-76
2022/10/08 02:27:52;;;;;;;14.63;4.03;;;;;;;;;;5045220;28;20032;-76
2022/10/08 02:30:19;;;;;;;19.90;4.40;;;;;;;;;;5047377;28;20021;-77
2022/10/08 02:32:49;;;;;;;18.43;4.57;;;;;;;;;;5057866;28;20025;-76
2022/10/08 02:35:39;;;;;;;15.37;5.07;;;;;;;;;;5057768;28;20086;-76
2022/10/08 02:38:09;;;;;;;20.23;4.80;;;;;;;;;;5034698;28;20136;-76
2022/10/08 02:40:37;;;;;;;17.83;4.70;;;;;;;;;;5049283;28;20410;-77
2022/10/08 02:43:07;;;;;;;23.30;4.73;;;;;;;;;;5047797;28;20031;-76
2022/10/08 02:45:37;;;;;;;19.37;5.60;;;;;;;;;;5079724;28;20025;-77
2022/10/08 02:48:10;;;;;;;15.47;4.27;;;;;;;;;;5053288;28;20059;-77
2022/10/08 02:50:39;;;;;;;18.77;4.77;;;;;;;;;;5058232;28;20024;-77
2022/10/08 02:53:05;;;;;;;13.40;4.47;;;;;;;;;;5067799;28;20028;-76
2022/10/08 02:55:38;;;;;;;15.47;4.37;;;;;;;;;;5057623;28;20036;-77
2022/10/08 02:58:06;;;;;;;17.52;4.22;;;;;;;;;;5074796;28;20489;-77
2022/10/08 03:00:45;;;;;;;15.77;4.47;;;;;;;;;;5074971;28;20446;-77
2022/10/08 03:03:15;;;;;;;19.00;4.37;;;;;;;;;;5071802;28;20120;-77
2022/10/08 03:05:42;;;;;;;21.43;5.13;;;;;;;;;;5061250;28;20067;-77
2022/10/08 03:08:10;;;;;;;15.67;4.20;;;;;;;;;;5077271;28;20032;-77
2022/10/08 03:10:37;;;;;;;20.60;5.43;;;;;;;;;;5060717;28;20075;-77
2022/10/08 03:13:04;;;;;;;20.23;4.13;;;;;;;;;;5076557;28;20403;-77
2022/10/08 03:15:33;;;;;;;17.37;4.10;;;;;;;;;;5066913;28;20070;-76
2022/10/08 03:18:04;;;;;;;24.23;5.23;;;;;;;;;;5070092;28;20036;-77
2022/10/08 03:20:30;;;;;;;13.47;3.33;;;;;;;;;;5057596;28;20039;-76
2022/10/08 03:22:59;;;;;;;20.33;3.83;;;;;;;;;;5051683;28;20032;-75
2022/10/08 03:25:25;;;;;;;15.27;4.27;;;;;;;;;;5049633;28;20028;-77
2022/10/08 03:27:51;;;;;;;10.53;3.60;;;;;;;;;;5069554;28;20059;-76
2022/10/08 03:30:17;;;;;;;17.70;3.60;;;;;;;;;;5064057;28;20027;-77
2022/10/08 03:32:43;;;;;;;13.77;3.43;;;;;;;;;;5059622;28;20051;-76
2022/10/08 03:35:09;;;;;;;16.30;3.73;;;;;;;;;;5057036;28;20016;-77
2022/10/08 03:37:35;;;;;;;15.33;3.43;;;;;;;;;;5060356;28;20037;-77
2022/10/08 03:40:01;;;;;;;19.13;4.20;;;;;;;;;;5054612;28;20029;-76
2022/10/08 03:42:27;;;;;;;10.27;3.07;;;;;;;;;;5058862;28;20049;-75
2022/10/08 03:44:53;;;;;;;15.87;3.70;;;;;;;;;;5060990;28;20032;-76
2022/10/08 03:47:19;;;;;;;19.47;3.53;;;;;;;;;;5063239;28;20115;-77
2022/10/08 03:49:45;;;;;;;13.30;3.70;;;;;;;;;;5059153;28;20032;-77
2022/10/08 03:52:11;;;;;;;15.80;4.20;;;;;;;;;;5045084;28;20353;-77
2022/10/08 03:54:37;;;;;;;18.60;4.10;;;;;;;;;;5064026;28;20031;-76
2022/10/08 03:57:04;;;;;;;12.17;3.40;;;;;;;;;;5080228;28;20444;-75
2022/10/08 03:59:30;;;;;;;18.33;3.93;;;;;;;;;;5060818;28;20040;-76
2022/10/08 04:01:56;;;;;;;16.50;4.40;;;;;;;;;;5081309;28;20073;-77
2022/10/08 04:04:22;;;;;;;13.73;3.60;;;;;;;;;;5072874;28;20025;-77
2022/10/08 04:06:50;;;;;;;13.80;3.10;;;;;;;;;;5060015;28;20036;-77
2022/10/08 04:09:16;;;;;;;13.37;3.53;;;;;;;;;;5082804;28;20028;-77
2022/10/08 04:11:44;;;;;;;9.70;2.80;;;;;;;;;;5079357;28;20028;-77
2022/10/08 04:14:10;;;;;;;12.87;3.10;;;;;;;;;;5051127;28;20025;-77
2022/10/08 04:16:36;;;;;;;11.37;3.23;;;;;;;;;;5074572;28;20036;-77
2022/10/08 04:19:02;;;;;;;12.93;3.50;;;;;;;;;;5089883;28;20400;-77
2022/10/08 04:21:29;;;;;;;10.77;3.03;;;;;;;;;;5062212;28;20039;-75
2022/10/08 04:23:55;;;;;;;13.07;3.77;;;;;;;;;;5077704;28;20106;-77
2022/10/08 04:26:21;;;;;;;17.27;3.20;;;;;;;;;;5077727;28;20024;-77
2022/10/08 04:28:47;;;;;;;10.73;2.90;;;;;;;;;;5060215;28;20025;-77
2022/10/08 04:31:18;;;;;;;13.83;3.63;;;;;;;;;;5068494;28;20039;-77
2022/10/08 04:33:45;;;;;;;7.60;3.40;;;;;;;;;;5065148;28;20111;-76
2022/10/08 04:36:12;;;;;;;11.43;3.00;;;;;;;;;;5059974;28;20111;-77
2022/10/08 04:38:40;;;;;;;8.70;3.10;;;;;;;;;;5059951;28;20035;-76
2022/10/08 04:41:11;;;;;;;8.40;2.63;;;;;;;;;;5084975;28;20024;-77
2022/10/08 04:43:38;;;;;;;9.70;2.43;;;;;;;;;;5077374;28;20033;-77
2022/10/08 04:46:05;;;;;;;13.27;3.00;;;;;;;;;;5059567;28;20012;-77
2022/10/08 04:48:31;;;;;;;12.90;3.33;;;;;;;;;;5065618;28;20131;-77
2022/10/08 04:50:58;;;;;;;20.33;3.33;;;;;;;;;;5065573;28;20024;-77
2022/10/08 04:53:27;;;;;;;9.70;2.33;;;;;;;;;;5061855;28;20082;-77
2022/10/08 04:55:56;;;;;;;10.23;2.20;;;;;;;;;;5054032;28;20449;-76
2022/10/08 04:58:26;;;;;;;5.93;2.43;;;;;;;;;;5059627;28;20032;-76
2022/10/08 05:00:52;;;;;;;9.13;2.90;;;;;;;;;;5074487;28;20119;-77
2022/10/08 05:03:20;;;;;;;5.70;2.13;;;;;;;;;;5059736;28;20060;-77
2022/10/08 05:05:49;;;;;;;4.03;2.17;;;;;;;;;;5069034;28;20033;-77
2022/10/08 05:08:15;;;;;;;7.30;2.40;;;;;;;;;;5039139;28;20409;-77
2022/10/08 05:10:47;;;;;;;5.20;2.13;;;;;;;;;;5086687;28;20689;-76
2022/10/08 05:13:13;;;;;;;7.90;2.33;;;;;;;;;;5059459;28;20035;-76
2022/10/08 05:15:41;;;;;;;6.27;2.40;;;;;;;;;;5058338;28;20032;-77
2022/10/08 05:18:07;;;;;;;5.47;1.90;;;;;;;;;;5064438;28;20468;-77
2022/10/08 05:20:37;;;;;;;4.90;2.47;;;;;;;;;;5059073;28;20036;-77
2022/10/08 05:23:03;;;;;;;4.50;2.30;;;;;;;;;;5059157;28;20024;-76
2022/10/08 05:25:31;;;;;;;7.90;2.43;;;;;;;;;;5059073;28;20381;-76
2022/10/08 05:27:57;;;;;;;6.73;2.60;;;;;;;;;;5085422;28;20098;-75
2022/10/08 05:30:23;;;;;;;7.10;2.83;;;;;;;;;;5062729;28;20025;-77
2022/10/08 05:32:51;;;;;;;7.97;2.50;;;;;;;;;;5058534;28;20373;-76
2022/10/08 05:35:17;;;;;;;5.03;2.27;;;;;;;;;;5061176;28;20419;-76
2022/10/08 05:37:43;;;;;;;9.93;3.53;;;;;;;;;;5048253;28;20422;-77
2022/10/08 05:40:09;;;;;;;8.13;3.10;;;;;;;;;;5046908;28;20113;-76
2022/10/08 05:42:35;;;;;;;7.07;3.17;;;;;;;;;;5074174;28;20040;-76
2022/10/08 05:45:02;;;;;;;9.60;3.03;;;;;;;;;;5072422;28;20044;-76
2022/10/08 05:47:28;;;;;;;9.20;3.50;;;;;;;;;;5076725;28;20024;-76
2022/10/08 05:49:54;;;;;;;8.70;3.40;;;;;;;;;;5061232;28;20032;-76
2022/10/08 05:52:22;;;;;;;10.43;3.87;;;;;;;;;;5047963;28;20024;-76
2022/10/08 05:54:48;;;;;;;12.93;4.37;;;;;;;;;;5057903;28;20020;-77
2022/10/08 05:57:14;;;;;;;12.13;5.43;;;;;;;;;;5073615;28;20055;-77
2022/10/08 05:59:43;;;;;;;11.07;4.77;;;;;;;;;;5065285;28;20554;-77
2022/10/08 06:02:10;;;;;;;13.47;5.20;;;;;;;;;;5059808;28;20029;-76
2022/10/08 06:04:38;;;;;;;14.00;5.60;;;;;;;;;;5043083;28;20032;-77
2022/10/08 06:07:04;;;;;;;13.43;5.73;;;;;;;;;;5050960;28;20024;-77
2022/10/08 06:09:30;;;;;;;11.07;5.60;;;;;;;;;;5052396;28;20052;-75
2022/10/08 06:11:56;;;;;;;9.23;5.73;;;;;;;;;;5038796;28;20037;-77
2022/10/08 06:14:23;;;;;;;7.53;5.00;;;;;;;;;;5056986;28;20438;-77
2022/10/08 06:16:49;;;;;;;11.63;5.50;;;;;;;;;;5075054;28;20030;-76
2022/10/08 06:19:15;;;;;;;11.00;4.80;;;;;;;;;;5057567;28;20115;-77
2022/10/08 06:21:41;;;;;;;11.13;5.23;;;;;;;;;;5057606;28;20093;-76
2022/10/08 06:24:08;;;;;;;12.70;4.57;;;;;;;;;;5062233;28;20033;-77
2022/10/08 06:26:36;;;;;;;8.27;4.80;;;;;;;;;;5074963;28;20032;-76
2022/10/08 06:29:04;;;;;;;7.87;4.00;;;;;;;;;;5058935;28;20020;-77
2022/10/08 06:31:30;;;;;;;10.80;4.63;;;;;;;;;;5057423;28;20028;-76
2022/10/08 06:33:56;;;;;;;12.00;4.70;;;;;;;;;;5057657;28;20028;-77
2022/10/08 06:36:27;;;;;;;8.93;4.97;;;;;;;;;;5057212;28;20042;-77
2022/10/08 06:38:56;;;;;;;9.10;5.70;;;;;;;;;;5079859;28;20027;-76
2022/10/08 06:41:23;;;;;;;13.27;6.30;;;;;;;;;;5061923;28;20043;-76
2022/10/08 06:43:49;;;;;;;10.90;5.30;;;;;;;;;;5040079;28;20074;-76
2022/10/08 06:46:16;;;;;;;10.80;6.23;;;;;;;;;;5041022;28;20021;-76
2022/10/08 06:48:42;;;;;;;15.27;7.83;;;;;;;;;;5068593;28;20016;-77
2022/10/08 06:51:13;;;;;;;13.27;7.20;;;;;;;;;;5057816;28;20020;-76
2022/10/08 06:53:39;;;;;;;8.33;6.67;;;;;;;;;;5063497;28;20017;-76
2022/10/08 06:56:06;;;;;;;20.67;8.80;;;;;;;;;;5069643;28;20090;-77
2022/10/08 06:58:36;;;;;;;12.67;7.50;;;;;;;;;;5053581;28;20032;-77
2022/10/08 07:01:10;;;;;;;11.07;7.57;;;;;;;;;;5049262;28;20036;-77
2022/10/08 07:03:38;;;;;;;11.23;7.47;;;;;;;;;;5060395;28;20093;-77
2022/10/08 07:06:06;;;;;;;14.07;7.73;;;;;;;;;;5054147;28;20029;-77
2022/10/08 07:08:33;;;;;;;10.80;7.23;;;;;;;;;;5089142;28;20028;-77
2022/10/08 07:11:06;;;;;;;10.73;6.70;;;;;;;;;;5059626;28;20024;-77
2022/10/08 07:13:32;;;;;;;12.17;7.60;;;;;;;;;;5051062;28;20044;-77
2022/10/08 07:16:06;;;;;;;13.00;7.30;;;;;;;;;;5046801;28;20032;-76
2022/10/08 07:18:33;;;;;;;9.90;7.27;;;;;;;;;;5051491;28;20032;-76
2022/10/08 07:20:59;;;;;;;13.40;7.07;;;;;;;;;;5048598;28;20131;-78
2022/10/08 07:23:27;;;;;;;9.67;7.07;;;;;;;;;;5051080;28;20047;-78
2022/10/08 07:25:54;;;;;;;12.70;7.43;;;;;;;;;;5062658;28;20048;-78
2022/10/08 07:28:20;;;;;;;11.90;7.50;;;;;;;;;;5061696;28;20107;-77
2022/10/08 07:30:49;;;;;;;12.23;7.97;;;;;;;;;;5076097;28;20067;-79
2022/10/08 07:33:15;;;;;;;18.90;8.47;;;;;;;;;;5064362;28;20103;-77
2022/10/08 07:35:41;;;;;;;12.70;7.07;;;;;;;;;;5050829;28;20032;-77
2022/10/08 07:38:07;;;;;;;14.93;8.70;;;;;;;;;;5069629;28;20040;-77
2022/10/08 07:40:34;;;;;;;11.73;7.20;;;;;;;;;;5056145;28;20039;-75
2022/10/08 07:43:01;;;;;;;11.90;7.10;;;;;;;;;;5057045;28;20045;-76
2022/10/08 07:45:27;;;;;;;11.97;7.10;;;;;;;;;;5074700;28;20078;-77
2022/10/08 07:47:53;;;;;;;15.60;7.60;;;;;;;;;;5074848;28;20037;-78
2022/10/08 07:50:19;;;;;;;12.57;6.33;;;;;;;;;;5055969;28;20036;-77
2022/10/08 07:52:45;;;;;;;15.70;7.27;;;;;;;;;;5055517;28;20028;-77
2022/10/08 07:55:11;;;;;;;12.70;6.77;;;;;;;;;;5055654;28;20048;-76
2022/10/08 07:57:37;;;;;;;10.30;6.43;;;;;;;;;;5074153;28;20039;-76
2022/10/08 08:00:03;;;;;;;12.10;6.97;;;;;;;;;;5072956;28;20032;-77
2022/10/08 08:02:29;;;;;;;13.50;7.20;;;;;;;;;;5073441;28;20453;-76
2022/10/08 08:04:55;;;;;;;10.97;6.37;;;;;;;;;;5054711;28;20043;-75
2022/10/08 08:07:21;;;;;;;10.10;6.83;;;;;;;;;;5053901;28;21595;-76
2022/10/08 08:09:50;;;;;;;12.80;7.17;;;;;;;;;;5054556;28;20021;-76
2022/10/08 08:12:16;;;;;;;14.27;6.80;;;;;;;;;;5053756;28;20029;-76
2022/10/08 08:14:44;;;;;;;12.00;7.00;;;;;;;;;;5053479;28;20051;-76
2022/10/08 08:17:10;;;;;;;11.13;7.00;;;;;;;;;;5053287;28;20032;-76
2022/10/08 08:19:39;;;;;;;11.67;6.30;;;;;;;;;;5053765;28;20036;-76
2022/10/08 08:22:05;;;;;;;13.80;5.80;;;;;;;;;;5053164;28;20036;-77
2022/10/08 08:24:33;;;;;;;10.00;5.83;;;;;;;;;;5071461;28;20020;-78
2022/10/08 08:26:59;;;;;;;10.60;5.77;;;;;;;;;;5053520;28;20028;-76
2022/10/08 08:29:28;;;;;;;9.20;5.47;;;;;;;;;;5054211;28;20017;-78
2022/10/08 08:31:56;;;;;;;12.27;6.20;;;;;;;;;;5053822;28;20024;-77
2022/10/08 08:34:23;;;;;;;11.30;6.53;;;;;;;;;;5053692;28;20485;-77
2022/10/08 08:36:50;;;;;;;15.30;6.20;;;;;;;;;;5053305;28;20038;-76
2022/10/08 08:39:17;;;;;;;9.63;6.20;;;;;;;;;;5054025;28;20035;-78
2022/10/08 08:41:59;;;;;;;10.30;5.07;;;;;;;;;;5044374;28;20043;-77
2022/10/08 08:44:30;;;;;;;15.50;5.50;;;;;;;;;;5054099;28;20086;-77
2022/10/08 08:47:01;;;;;;;10.73;5.30;;;;;;;;;;5057100;28;20036;-76
2022/10/08 08:50:03;;;;;;;8.00;4.60;;;;;;;;;;5052261;28;20054;-74
2022/10/08 08:52:32;;;;;;;8.37;4.13;;;;;;;;;;4955177;28;20468;-76
2022/10/08 08:54:59;;;;;;;9.70;4.47;;;;;;;;;;5037774;28;20032;-75
2022/10/08 08:57:45;;;;;;;9.67;4.50;;;;;;;;;;5056709;28;20081;-78
2022/10/08 09:00:11;;;;;;;9.60;3.63;;;;;;;;;;5054668;28;20047;-75
2022/10/08 09:02:40;;;;;;;11.93;4.83;;;;;;;;;;5053730;28;20036;-77
2022/10/08 09:05:10;;;;;;;9.43;3.80;;;;;;;;;;5071444;28;20028;-76
2022/10/08 09:07:41;;;;;;;9.10;4.20;;;;;;;;;;5050752;28;20052;-77
2022/10/08 09:10:14;;;;;;;7.50;3.60;;;;;;;;;;5071674;28;20115;-76
2022/10/08 09:12:42;;;;;;;11.43;3.77;;;;;;;;;;5053939;28;20357;-77
2022/10/08 09:15:28;;;;;;;9.33;4.20;;;;;;;;;;5053760;28;20034;-77
2022/10/08 09:17:54;;;;;;;5.97;3.10;;;;;;;;;;5071022;28;20033;-77
2022/10/08 09:20:26;;;;;;;7.50;3.88;;;;;;;;;;5070615;28;20025;-77
2022/10/08 09:22:53;;;;;;;21.20;3.45;;;;;;;;;;5053650;28;20056;-78
2022/10/08 09:25:30;;;;;;;10.97;3.50;;;15.40;99.90;;;;;;5052412;28;20094;-76
2022/10/08 09:27:56;;;;;;;10.80;3.67;;;15.20;99.90;;;;;;5053542;28;20040;-77
2022/10/08 09:30:41;;;;;;;7.27;3.47;;;14.90;99.90;;;;;;5052242;28;20031;-77
2022/10/08 09:33:15;;;;;;;11.93;3.20;;;14.60;99.90;;;;;;5052727;28;20028;-76
2022/10/08 09:35:44;;;;;;;12.17;4.20;;;14.50;99.90;;;;;;5054621;28;20025;-77
2022/10/08 09:38:25;;;;;;;7.87;4.30;;;14.50;99.90;;;;;;5068567;28;20051;-78
2022/10/08 09:41:02;;;;;;;9.13;3.33;;;14.50;99.90;;;;;;5052945;28;20056;-78
2022/10/08 09:43:28;;;;;;;13.87;4.27;;;14.80;99.90;;;;;;5053870;28;20024;-78
2022/10/08 09:45:54;;;;;;;7.67;3.20;;;15.00;99.90;;;;;;5055114;28;20077;-76
2022/10/08 09:48:23;;;;;;;6.37;2.73;;;15.20;99.90;;;;;;5068559;28;20025;-77
2022/10/08 09:51:00;;;;;;;8.48;3.22;;;15.40;99.90;;;;;;5051860;28;20028;-78
2022/10/08 09:53:40;;;;;;;6.00;2.55;;;15.70;99.90;;;;;;5054434;28;20593;-78
2022/10/08 09:56:09;;;;;;;10.23;2.83;;;15.90;99.90;;;;;;5053692;28;20017;-78
2022/10/08 09:58:53;;;;;;;5.80;2.63;;;15.80;99.90;;;;;;5074822;28;20052;-78
2022/10/08 10:01:19;;;;;;;7.30;2.75;;;15.90;99.90;;;;;;5054489;28;20399;-76
2022/10/08 10:03:54;;;;;;;10.48;3.20;;;15.90;99.90;;;;;;5047511;28;20120;-77
2022/10/08 10:06:38;;;;;;;5.25;2.88;;;16.00;99.90;;;;;;5055339;28;20052;-77
2022/10/08 10:09:21;;;;;;;4.63;2.97;;;16.30;99.90;;;;;;5055131;28;20071;-76
2022/10/08 10:11:54;;;;;;;6.90;2.85;;;16.50;99.90;;;;;;5053806;28;20025;-78
2022/10/08 10:14:23;;;;;;;5.47;2.15;;;16.60;99.90;;;;;;5058778;28;20016;-77
2022/10/08 10:16:52;;;;;;;5.57;2.10;;;;;;;;;;5046631;28;20595;-76
2022/10/08 10:19:21;;;;;;;7.07;2.40;;;;;;;;;;5055462;28;20024;-76
2022/10/08 10:21:56;;;;;;;7.22;2.40;;;;;;;;;;5048016;28;20055;-77
2022/10/08 10:24:22;;;;;;;9.02;2.00;;;;;;;;;;5070402;28;20056;-76
2022/10/08 10:26:49;;;;;;;7.38;2.55;;;;;;;;;;5051918;28;20413;-78
2022/10/08 10:29:18;;;;;;;4.57;2.38;;;;;;;;;;5064694;28;20093;-76
2022/10/08 10:31:56;;;;;;;6.35;2.03;;;;;;;;;;5054870;28;20410;-78
2022/10/08 10:34:27;;;;;;;3.53;2.28;;;;;;;;;;5052191;28;20021;-78
2022/10/08 10:36:55;;;;;;;7.90;2.75;;;;;;;;;;5067181;28;20036;-78
2022/10/08 10:39:48;;;;;;;12.90;2.78;;;15.60;99.90;;;;;;5052166;28;20021;-76
2022/10/08 10:42:17;;;;;;;6.10;2.90;;;15.40;99.90;;;;;;5053967;28;20036;-77
2022/10/08 10:44:48;;;;;;;8.25;2.78;;;15.30;99.90;;;;;;5063329;28;20040;-77
2022/10/08 10:47:19;;;;;;;7.20;2.60;;;15.40;99.90;;;;;;5065767;28;20073;-78
2022/10/08 10:49:45;;;;;;;9.30;3.08;;;15.50;99.90;;;;;;5045372;28;20264;-77
2022/10/08 10:52:32;;;;;;;6.65;2.40;;;15.70;99.90;;;;;;5054870;28;20024;-77
2022/10/08 10:55:29;;;;;;;7.13;2.90;;;15.90;99.90;;;;;;5051656;28;20515;-76
2022/10/08 10:57:57;;;;;;;6.07;2.35;;;15.90;99.90;;;;;;5048925;28;20035;-77
2022/10/08 11:00:29;;;;;;;4.90;2.08;;;15.80;99.90;;;;;;5050907;28;20090;-77
2022/10/08 11:03:29;;;;;;;11.02;2.42;;;15.80;99.90;;;;;;5049450;28;20111;-76
2022/10/08 11:06:13;;;;;;;7.93;1.55;;;;;;;;;;4950968;28;20043;-76
2022/10/08 11:08:43;;;;;;;4.93;1.83;;;15.70;99.90;;;;;;5076634;28;20024;-77
2022/10/08 11:11:27;;;;;;;4.47;1.63;;;15.60;99.90;;;;;;5058221;28;20021;-77
2022/10/08 11:14:25;;;;;;;12.32;2.30;;;15.60;99.90;;;;;;5048292;28;20021;-77
2022/10/08 11:17:18;;;;;;;8.15;1.77;;;15.60;99.90;;;;;;5044722;28;20024;-78
2022/10/08 11:20:01;;;;;;;5.38;1.50;;;15.80;99.90;;;;;;5057595;28;20074;-79
2022/10/08 11:22:37;;;;;;;4.82;1.15;;;16.10;99.90;;;;;;5054057;28;20446;-76
2022/10/08 11:25:15;;;;;;;5.13;1.35;;;16.40;99.90;;;;;;5053591;28;20125;-78
2022/10/08 11:28:09;;;;;;;4.22;1.48;;;16.60;99.90;;;;;;5053030;28;20032;-79
2022/10/08 11:30:34;;;;;;;5.10;1.08;;;16.70;99.90;;;;;;5047540;28;20063;-78
2022/10/08 11:33:00;;;;;;;8.02;2.08;;;16.40;99.90;;;;;;5067650;28;20448;-79
2022/10/08 11:35:49;;;;;;;2.97;0.95;;;16.10;99.90;;;;;;5055248;28;20435;-77
2022/10/08 11:38:15;;;;;;;8.77;1.40;;;;;;;;;;5054450;28;20037;-78
2022/10/08 11:40:53;;;;;;;6.78;1.55;;;15.60;99.90;;;;;;5052830;28;20468;-77
2022/10/08 11:43:32;;;;;;;6.32;1.42;;;15.60;99.90;;;;;;5074438;28;20029;-78
2022/10/08 11:46:19;;;;;;;6.00;2.05;;;16.00;99.90;;;;;;5044279;28;20035;-78
2022/10/08 11:48:47;;;;;;;7.38;1.67;;;16.40;99.90;;;;;;5070602;28;20028;-78
2022/10/08 11:51:19;;;;;;;3.25;1.10;;;16.40;99.90;;;;;;5047701;28;20017;-78
2022/10/08 11:54:05;;;;;;;6.80;1.15;;;16.40;99.90;;;;;;5045363;28;20029;-78
2022/10/08 11:56:34;;;;;;;6.97;1.50;;;16.40;99.90;;;;;;5052345;28;20418;-78
2022/10/08 11:59:21;;;;;;;5.93;0.98;;;16.50;99.90;;;;;;5068236;28;20021;-78
2022/10/08 12:01:49;;;;;;;7.40;1.45;;;;;;;;;;5049848;28;20452;-77
2022/10/08 12:04:22;;;;;;;2.70;1.10;;;16.00;99.90;;;;;;5056817;28;20025;-77
2022/10/08 12:07:05;;;;;;;4.15;1.13;;;15.70;99.90;;;;;;5070592;28;20024;-77
2022/10/08 12:10:03;;;;;;;2.67;1.08;;;15.60;99.90;;;;;;5062739;28;20021;-77
2022/10/08 12:12:47;;;;;;;2.13;0.80;;;15.80;99.90;;;;;;5042611;28;20029;-78
2022/10/08 12:15:22;;;;;;;7.00;1.58;;;15.80;99.90;;;;;;5077864;28;20092;-78
2022/10/08 12:17:51;;;;;;;5.35;1.20;;;;;;;;;;5048058;28;20028;-79
2022/10/08 12:20:32;;;;;;;3.63;1.02;;;15.80;99.90;;;;;;5063216;28;20028;-77
2022/10/08 12:23:11;;;;;;;4.55;0.63;;;15.80;99.90;;;;;;5064342;28;20016;-78
2022/10/08 12:25:40;;;;;;;5.70;1.35;;;15.80;99.90;;;;;;5054066;28;20522;-79
2022/10/08 12:28:20;;;;;;;3.88;0.95;;;15.90;99.90;;;;;;5056171;28;20089;-78
2022/10/08 12:30:47;;;;;;;3.78;1.15;;;15.90;99.90;;;;;;5055846;28;20086;-78
2022/10/08 12:33:16;;;;;;;4.28;1.15;;;16.00;99.90;;;;;;5061904;28;20069;-78
2022/10/08 12:36:01;;;;;;;4.90;1.00;;;16.20;99.90;;;;;;5062266;28;20052;-78
2022/10/08 12:38:52;;;;;;;4.45;0.98;;;16.40;99.90;;;;;;5056684;28;20123;-77
2022/10/08 12:41:25;;;;;;;5.65;1.27;;;16.30;99.90;;;;;;5055072;28;20024;-78
2022/10/08 12:43:54;;;;;;;3.75;1.05;;;16.40;99.90;;;;;;5055927;28;20079;-77
2022/10/08 12:46:22;;;;;;;5.85;1.42;;;16.50;99.90;;;;;;5067484;28;20417;-77
2022/10/08 12:48:48;;;;;;;4.80;1.15;;;16.70;99.90;;;;;;5052173;28;20036;-76
2022/10/08 12:51:31;;;;;;;2.85;0.80;;;16.60;99.90;;;;;;5056568;28;20016;-77
2022/10/08 12:53:57;;;;;;;3.28;0.82;;;16.60;99.90;;;;;;5057869;28;20017;-76
2022/10/08 12:56:27;;;;;;;2.47;0.75;;;16.40;99.90;;;;;;5051695;28;20078;-77
2022/10/08 12:58:55;;;;;;;3.60;0.68;;;16.50;99.90;;;;;;5079504;28;20048;-77
2022/10/08 13:01:22;;;;;;;2.85;0.88;;;17.50;98.60;;;;;;5054613;28;20099;-78
2022/10/08 13:04:06;;;;;;;1.27;0.52;;;;;;;;;;5062404;28;20035;-77
2022/10/08 13:06:34;;;;;;;4.03;1.20;;;18.40;93.00;;;;;;5055966;28;20026;-77
2022/10/08 13:08:59;;;;;;;3.45;0.98;;;18.30;92.30;;;;;;5079608;28;20029;-78
2022/10/08 13:11:27;;;;;;;6.20;1.63;;;17.80;92.40;;;;;;5067924;28;20028;-78
2022/10/08 13:13:53;;;;;;;4.75;0.50;;;17.70;92.00;;;;;;5060168;28;20024;-78
2022/10/08 13:16:24;;;;;;;3.25;0.52;;;17.30;93.40;;;;;;5059155;28;20021;-77
2022/10/08 13:18:52;;;;;;;2.90;0.80;;;;;;;;;;5058996;28;20025;-78
2022/10/08 13:21:30;;;;;;;5.40;1.00;;;17.00;94.30;;;;;;5050456;28;20090;-76
2022/10/08 13:23:57;;;;;;;4.30;0.52;;;16.80;95.00;;;;;;5046139;28;20021;-78
2022/10/08 13:26:50;;;;;;;4.65;1.58;;;16.40;97.10;;;;;;5048238;28;20078;-78
2022/10/08 13:29:31;;;;;;;4.53;0.95;;;;;;;;;;5055304;28;20025;-78
2022/10/08 13:32:13;;;;;;;4.20;0.90;;;16.40;98.10;;;;;;5041672;28;20028;-78
2022/10/08 13:34:39;;;;;;;;;;;16.90;97.70;;;;;;5054157;28;20025;-78
2022/10/08 13:37:13;;;;;;;5.15;0.82;;;17.00;97.10;;;;;;5050386;28;19931;-78
2022/10/08 13:39:41;;;;;;;3.47;0.93;;;17.40;97.10;;;;;;5071502;28;20047;-76
2022/10/08 13:42:09;;;;;;;3.67;0.63;;;;;;;;;;5072363;28;20348;-78
2022/10/08 13:44:37;;;;;;;4.40;0.63;;;;;;;;;;5070747;28;20024;-76
2022/10/08 13:47:03;;;;;;;3.28;1.13;;;;;;;;;;5053386;28;20071;-77
2022/10/08 13:49:31;;;;;;;2.65;0.77;;;;;;;;;;5053204;28;20048;-77
2022/10/08 13:51:57;;;;;;;2.55;0.70;;;;;;;;;;5054592;28;20054;-77
2022/10/08 13:54:30;;;;;;;1.92;0.68;;;20.60;83.70;;;;;;5052367;28;20136;-76
2022/10/08 13:56:56;;;;;;;3.55;0.60;;;20.60;83.90;;;;;;5047009;28;20025;-77
2022/10/08 13:59:22;;;;;;;2.70;1.10;;;20.40;81.80;;;;;;5070002;28;20036;-77
2022/10/08 14:01:48;;;;;;;3.92;1.00;;;;;;;;;;5069248;28;20125;-78
2022/10/08 14:04:15;;;;;;;5.20;0.95;;;20.10;79.90;;;;;;5052825;28;20528;-77
2022/10/08 14:06:44;;;;;;;6.47;0.60;;;19.90;82.60;;;;;;5069808;28;20055;-76
2022/10/08 14:09:20;;;;;;;1.67;0.55;;;20.20;79.90;;;;;;5052694;28;20043;-77
2022/10/08 14:11:49;;;;;;;4.57;0.80;;;;;;;;;;5051903;28;20024;-76
2022/10/08 14:14:17;;;;;;;5.72;1.05;;;19.10;79.60;;;;;;5041829;28;20107;-75
2022/10/08 14:16:43;;;;;;;2.78;0.75;;;18.30;82.90;;;;;;5054414;28;20024;-77
2022/10/08 14:19:09;;;;;;;4.25;1.10;;;17.70;85.50;;;;;;5052449;28;20025;-75
2022/10/08 14:21:36;;;;;;;4.20;1.00;;;17.40;88.20;;;;;;5054682;28;20082;-77
2022/10/08 14:24:02;;;;;;;3.15;0.70;;;;;;;;;;5069913;28;20033;-77